sensor_id;sensor_type;location;lat;lon;timestamp;pressure;altitude;pressure_sealevel;temperature;humidity
76478;BME280;65309;49.790;18.972;2022-11-20T00:01:41;96475.81;;;-4.13;84.56
76478;BME280;65309;49.790;18.972;2022-11-20T00:06:46;96476.56;;;-4.02;83.65
76478;BME280;65309;49.790;18.972;2022-11-20T00:11:48;96467.34;;;-4.11;83.83
76478;BME280;65309;49.790;18.972;2022-11-20T00:16:50;96467.38;;;-4.19;84.55
76478;BME280;65309;49.790;18.972;2022-11-20T00:21:53;96467.38;;;-4.26;84.42
76478;BME280;65309;49.790;18.972;2022-11-20T00:26:56;96485.50;;;-4.23;84.12
76478;BME280;65309;49.790;18.972;2022-11-20T00:31:58;96486.66;;;-4.24;82.53
76478;BME280;65309;49.790;18.972;2022-11-20T00:37:02;96478.19;;;-4.33;83.92
76478;BME280;65309;49.790;18.972;2022-11-20T00:42:04;96471.28;;;-4.41;83.65
76478;BME280;65309;49.790;18.972;2022-11-20T00:47:06;96464.00;;;-4.51;83.77
76478;BME280;65309;49.790;18.972;2022-11-20T00:52:09;96448.94;;;-4.63;84.21
76478;BME280;65309;49.790;18.972;2022-11-20T00:57:11;96449.78;;;-4.97;85.20
76478;BME280;65309;49.790;18.972;2022-11-20T01:02:13;96460.94;;;-4.81;84.69
76478;BME280;65309;49.790;18.972;2022-11-20T01:07:18;96443.22;;;-5.11;85.06
76478;BME280;65309;49.790;18.972;2022-11-20T01:12:20;96441.28;;;-5.17;85.61
76478;BME280;65309;49.790;18.972;2022-11-20T01:17:22;96449.78;;;-5.12;85.00
76478;BME280;65309;49.790;18.972;2022-11-20T01:22:26;96446.69;;;-5.06;85.02
76478;BME280;65309;49.790;18.972;2022-11-20T01:27:28;96435.13;;;-5.21;85.49
76478;BME280;65309;49.790;18.972;2022-11-20T01:32:29;96436.69;;;-5.31;85.03
76478;BME280;65309;49.790;18.972;2022-11-20T01:37:33;96423.56;;;-5.29;84.81
76478;BME280;65309;49.790;18.972;2022-11-20T01:42:35;96427.03;;;-5.25;85.24
76478;BME280;65309;49.790;18.972;2022-11-20T01:47:55;96422.03;;;-5.37;85.31
76478;BME280;65309;49.790;18.972;2022-11-20T01:53:02;96415.84;;;-5.62;85.14
76478;BME280;65309;49.790;18.972;2022-11-20T01:58:05;96423.16;;;-5.70;85.70
76478;BME280;65309;49.790;18.972;2022-11-20T02:03:09;96425.84;;;-5.73;85.79
76478;BME280;65309;49.790;18.972;2022-11-20T02:08:14;96433.16;;;-5.70;86.34
76478;BME280;65309;49.790;18.972;2022-11-20T02:13:17;96443.56;;;-5.65;86.08
76478;BME280;65309;49.790;18.972;2022-11-20T02:18:38;96432.00;;;-5.76;85.88
76478;BME280;65309;49.790;18.972;2022-11-20T02:23:53;96448.50;;;-5.85;86.30
76478;BME280;65309;49.790;18.972;2022-11-20T02:28:56;96456.97;;;-5.97;85.78
76478;BME280;65309;49.790;18.972;2022-11-20T02:33:58;96463.16;;;-5.89;85.89
76478;BME280;65309;49.790;18.972;2022-11-20T02:39:02;96450.06;;;-5.77;85.86
76478;BME280;65309;49.790;18.972;2022-11-20T02:44:05;96445.09;;;-5.53;84.82
76478;BME280;65309;49.790;18.972;2022-11-20T02:49:07;96447.81;;;-5.57;86.14
76478;BME280;65309;49.790;18.972;2022-11-20T02:54:10;96449.75;;;-5.40;85.72
76478;BME280;65309;49.790;18.972;2022-11-20T02:59:12;96450.53;;;-5.32;86.07
76478;BME280;65309;49.790;18.972;2022-11-20T03:04:14;96447.06;;;-5.33;85.98
76478;BME280;65309;49.790;18.972;2022-11-20T03:09:17;96436.28;;;-5.33;85.26
76478;BME280;65309;49.790;18.972;2022-11-20T03:14:20;96447.44;;;-5.45;86.13
76478;BME280;65309;49.790;18.972;2022-11-20T03:19:22;96448.56;;;-5.49;86.40
76478;BME280;65309;49.790;18.972;2022-11-20T03:24:26;96440.91;;;-5.47;86.33
76478;BME280;65309;49.790;18.972;2022-11-20T03:29:28;96440.50;;;-5.46;85.96
76478;BME280;65309;49.790;18.972;2022-11-20T03:34:30;96445.88;;;-5.53;86.18
76478;BME280;65309;49.790;18.972;2022-11-20T03:39:33;96447.81;;;-5.53;86.49
76478;BME280;65309;49.790;18.972;2022-11-20T03:44:35;96455.09;;;-5.54;86.25
76478;BME280;65309;49.790;18.972;2022-11-20T03:49:37;96450.53;;;-5.36;85.68
76478;BME280;65309;49.790;18.972;2022-11-20T03:54:41;96436.28;;;-5.40;85.98
76478;BME280;65309;49.790;18.972;2022-11-20T03:59:43;96442.06;;;-5.24;86.47
76478;BME280;65309;49.790;18.972;2022-11-20T04:04:44;96439.75;;;-5.00;86.26
76478;BME280;65309;49.790;18.972;2022-11-20T04:09:48;96446.31;;;-4.80;86.67
76478;BME280;65309;49.790;18.972;2022-11-20T04:14:50;96429.69;;;-4.72;86.57
76478;BME280;65309;49.790;18.972;2022-11-20T04:19:52;96426.97;;;-4.54;86.56
76478;BME280;65309;49.790;18.972;2022-11-20T04:24:55;96423.84;;;-4.38;85.62
76478;BME280;65309;49.790;18.972;2022-11-20T04:29:57;96417.25;;;-4.34;86.13
76478;BME280;65309;49.790;18.972;2022-11-20T04:34:59;96420.31;;;-4.25;86.48
76478;BME280;65309;49.790;18.972;2022-11-20T04:40:03;96420.72;;;-4.23;86.33
76478;BME280;65309;49.790;18.972;2022-11-20T04:45:05;96425.72;;;-4.18;86.53
76478;BME280;65309;49.790;18.972;2022-11-20T04:50:08;96421.81;;;-4.13;86.87
76478;BME280;65309;49.790;18.972;2022-11-20T04:55:12;96417.94;;;-4.08;86.59
76478;BME280;65309;49.790;18.972;2022-11-20T05:00:15;96412.53;;;-4.08;86.91
76478;BME280;65309;49.790;18.972;2022-11-20T05:05:17;96404.81;;;-4.03;86.17
76478;BME280;65309;49.790;18.972;2022-11-20T05:10:21;96399.44;;;-4.06;86.70
76478;BME280;65309;49.790;18.972;2022-11-20T05:15:23;96402.50;;;-4.01;86.15
76478;BME280;65309;49.790;18.972;2022-11-20T05:20:25;96396.25;;;-3.91;85.25
76478;BME280;65309;49.790;18.972;2022-11-20T05:25:28;96388.56;;;-3.96;85.25
76478;BME280;65309;49.790;18.972;2022-11-20T05:30:30;96388.59;;;-4.03;85.66
76478;BME280;65309;49.790;18.972;2022-11-20T05:35:32;96392.53;;;-4.14;85.99
76478;BME280;65309;49.790;18.972;2022-11-20T05:40:36;96381.41;;;-4.31;86.51
76478;BME280;65309;49.790;18.972;2022-11-20T05:45:38;96377.19;;;-4.42;86.56
76478;BME280;65309;49.790;18.972;2022-11-20T05:50:40;96380.72;;;-4.56;85.39
76478;BME280;65309;49.790;18.972;2022-11-20T05:55:43;96370.28;;;-4.47;85.18
76478;BME280;65309;49.790;18.972;2022-11-20T06:00:45;96377.66;;;-4.61;85.42
76478;BME280;65309;49.790;18.972;2022-11-20T06:05:47;96377.69;;;-4.72;86.18
76478;BME280;65309;49.790;18.972;2022-11-20T06:10:51;96378.88;;;-4.94;86.32
76478;BME280;65309;49.790;18.972;2022-11-20T06:15:53;96381.59;;;-4.94;86.60
76478;BME280;65309;49.790;18.972;2022-11-20T06:21:00;96363.84;;;-4.95;86.79
76478;BME280;65309;49.790;18.972;2022-11-20T06:26:05;96364.66;;;-5.02;86.02
76478;BME280;65309;49.790;18.972;2022-11-20T06:31:10;96355.41;;;-5.08;86.97
76478;BME280;65309;49.790;18.972;2022-11-20T06:36:14;96351.94;;;-5.01;85.94
76478;BME280;65309;49.790;18.972;2022-11-20T06:41:20;96344.22;;;-4.96;85.41
76478;BME280;65309;49.790;18.972;2022-11-20T06:46:22;96340.03;;;-5.11;85.79
76478;BME280;65309;49.790;18.972;2022-11-20T06:51:24;96339.66;;;-5.24;85.59
76478;BME280;65309;49.790;18.972;2022-11-20T06:56:27;96340.38;;;-5.09;85.53
76478;BME280;65309;49.790;18.972;2022-11-20T07:01:30;96342.72;;;-5.18;85.67
76478;BME280;65309;49.790;18.972;2022-11-20T07:06:32;96351.19;;;-5.13;85.78
76478;BME280;65309;49.790;18.972;2022-11-20T07:11:35;96358.09;;;-4.94;85.41
76478;BME280;65309;49.790;18.972;2022-11-20T07:16:37;96361.69;;;-3.58;82.18
76478;BME280;65309;49.790;18.972;2022-11-20T07:21:39;96354.22;;;-2.55;77.28
76478;BME280;65309;49.790;18.972;2022-11-20T07:26:42;96363.53;;;-2.97;78.89
76478;BME280;65309;49.790;18.972;2022-11-20T07:31:47;96366.47;;;-3.21;79.80
76478;BME280;65309;49.790;18.972;2022-11-20T07:36:49;96381.88;;;-3.18;81.44
76478;BME280;65309;49.790;18.972;2022-11-20T07:41:52;96380.22;;;-3.09;81.59
76478;BME280;65309;49.790;18.972;2022-11-20T07:46:54;96373.19;;;-2.99;81.08
76478;BME280;65309;49.790;18.972;2022-11-20T07:51:56;96377.72;;;-2.86;80.72
76478;BME280;65309;49.790;18.972;2022-11-20T07:57:06;96378.03;;;-2.76;81.53
76478;BME280;65309;49.790;18.972;2022-11-20T08:02:09;96376.66;;;-2.58;79.58
76478;BME280;65309;49.790;18.972;2022-11-20T08:07:11;96376.31;;;-2.60;79.61
76478;BME280;65309;49.790;18.972;2022-11-20T08:12:18;96372.94;;;-2.37;80.18
76478;BME280;65309;49.790;18.972;2022-11-20T08:17:39;96367.19;;;-2.39;79.96
76478;BME280;65309;49.790;18.972;2022-11-20T08:22:41;96376.31;;;-2.29;80.38
76478;BME280;65309;49.790;18.972;2022-11-20T08:27:45;96378.59;;;-2.24;79.56
76478;BME280;65309;49.790;18.972;2022-11-20T08:32:47;96368.44;;;-2.17;79.72
76478;BME280;65309;49.790;18.972;2022-11-20T08:37:49;96365.44;;;-2.22;80.31
76478;BME280;65309;49.790;18.972;2022-11-20T08:42:52;96367.41;;;-1.96;79.91
76478;BME280;65309;49.790;18.972;2022-11-20T08:47:59;96372.84;;;-1.43;78.05
76478;BME280;65309;49.790;18.972;2022-11-20T08:53:02;96371.13;;;-1.29;76.06
76478;BME280;65309;49.790;18.972;2022-11-20T08:58:06;96369.56;;;-1.07;75.22
76478;BME280;65309;49.790;18.972;2022-11-20T09:03:08;96372.28;;;-1.07;74.88
76478;BME280;65309;49.790;18.972;2022-11-20T09:08:11;96376.06;;;-0.78;72.20
76478;BME280;65309;49.790;18.972;2022-11-20T09:13:14;96374.50;;;-0.56;69.61
76478;BME280;65309;49.790;18.972;2022-11-20T09:18:16;96367.34;;;-0.26;66.34
76478;BME280;65309;49.790;18.972;2022-11-20T09:23:18;96360.78;;;-0.29;66.10
76478;BME280;65309;49.790;18.972;2022-11-20T09:28:21;96367.59;;;-0.60;68.56
76478;BME280;65309;49.790;18.972;2022-11-20T09:33:23;96363.63;;;-0.16;67.24
76478;BME280;65309;49.790;18.972;2022-11-20T09:38:25;96365.72;;;-0.63;68.08
76478;BME280;65309;49.790;18.972;2022-11-20T09:43:36;96365.72;;;-0.86;70.29
76478;BME280;65309;49.790;18.972;2022-11-20T09:49:00;96362.16;;;-0.60;69.31
76478;BME280;65309;49.790;18.972;2022-11-20T09:54:13;96363.25;;;-0.77;70.27
76478;BME280;65309;49.790;18.972;2022-11-20T09:59:31;96359.94;;;-0.46;69.59
76478;BME280;65309;49.790;18.972;2022-11-20T10:04:35;96355.50;;;-0.79;70.24
76478;BME280;65309;49.790;18.972;2022-11-20T10:09:48;96344.03;;;-0.08;67.22
76478;BME280;65309;49.790;18.972;2022-11-20T10:15:12;96336.38;;;0.07;66.27
76478;BME280;65309;49.790;18.972;2022-11-20T10:20:19;96333.03;;;-0.01;67.66
76478;BME280;65309;49.790;18.972;2022-11-20T10:25:32;96336.69;;;0.09;66.96
76478;BME280;65309;49.790;18.972;2022-11-20T10:30:41;96325.75;;;0.13;67.57
76478;BME280;65309;49.790;18.972;2022-11-20T10:35:45;96316.38;;;0.98;65.96
76478;BME280;65309;49.790;18.972;2022-11-20T10:40:52;96303.91;;;1.42;62.72
76478;BME280;65309;49.790;18.972;2022-11-20T10:46:20;96312.00;;;1.01;64.58
76478;BME280;65309;49.790;18.972;2022-11-20T10:51:31;96308.91;;;0.70;66.91
76478;BME280;65309;49.790;18.972;2022-11-20T10:56:40;96317.03;;;1.02;64.64
76478;BME280;65309;49.790;18.972;2022-11-20T11:01:51;96313.09;;;1.19;62.80
76478;BME280;65309;49.790;18.972;2022-11-20T11:06:57;96306.16;;;0.86;65.19
76478;BME280;65309;49.790;18.972;2022-11-20T11:12:01;96298.84;;;0.51;68.43
76478;BME280;65309;49.790;18.972;2022-11-20T11:17:21;96288.91;;;0.76;68.80
76478;BME280;65309;49.790;18.972;2022-11-20T11:22:23;96285.09;;;0.74;68.60
76478;BME280;65309;49.790;18.972;2022-11-20T11:27:25;96298.50;;;0.81;68.87
76478;BME280;65309;49.790;18.972;2022-11-20T11:32:28;96306.34;;;0.46;70.09
76478;BME280;65309;49.790;18.972;2022-11-20T11:37:33;96307.00;;;0.51;69.76
76478;BME280;65309;49.790;18.972;2022-11-20T11:42:41;96311.72;;;0.50;70.59
76478;BME280;65309;49.790;18.972;2022-11-20T11:47:47;96306.69;;;0.49;70.34
76478;BME280;65309;49.790;18.972;2022-11-20T11:52:59;96308.28;;;0.46;70.97
76478;BME280;65309;49.790;18.972;2022-11-20T11:58:14;96299.78;;;0.28;71.12
76478;BME280;65309;49.790;18.972;2022-11-20T12:03:21;96279.66;;;0.58;71.17
76478;BME280;65309;49.790;18.972;2022-11-20T12:08:31;96271.16;;;0.39;71.53
76478;BME280;65309;49.790;18.972;2022-11-20T12:13:40;96266.06;;;0.58;74.47
76478;BME280;65309;49.790;18.972;2022-11-20T12:18:48;96257.53;;;0.72;71.39
76478;BME280;65309;49.790;18.972;2022-11-20T12:31:48;96243.97;;;2.21;66.50
76478;BME280;65309;49.790;18.972;2022-11-20T12:36:56;96232.22;;;1.45;67.79
76478;BME280;65309;49.790;18.972;2022-11-20T12:42:15;96235.59;;;1.08;70.48
76478;BME280;65309;49.790;18.972;2022-11-20T12:47:59;96230.63;;;0.90;71.48
76478;BME280;65309;49.790;18.972;2022-11-20T12:53:07;96225.69;;;1.14;69.62
76478;BME280;65309;49.790;18.972;2022-11-20T12:58:18;96210.09;;;0.57;70.99
76478;BME280;65309;49.790;18.972;2022-11-20T13:03:37;96221.66;;;1.06;71.71
76478;BME280;65309;49.790;18.972;2022-11-20T13:08:45;96201.28;;;1.10;72.55
76478;BME280;65309;49.790;18.972;2022-11-20T13:14:03;96219.44;;;1.01;72.35
76478;BME280;65309;49.790;18.972;2022-11-20T13:19:11;96198.66;;;1.07;71.94
76478;BME280;65309;49.790;18.972;2022-11-20T13:24:22;96198.53;;;0.69;74.08
76478;BME280;65309;49.790;18.972;2022-11-20T13:29:27;96192.38;;;0.36;75.80
76478;BME280;65309;49.790;18.972;2022-11-20T13:34:32;96185.41;;;0.03;77.92
76478;BME280;65309;49.790;18.972;2022-11-20T13:39:35;96184.63;;;0.02;77.05
76478;BME280;65309;49.790;18.972;2022-11-20T13:44:42;96172.56;;;-0.29;79.81
76478;BME280;65309;49.790;18.972;2022-11-20T13:49:45;96163.06;;;-0.05;77.76
76478;BME280;65309;49.790;18.972;2022-11-20T13:55:02;96154.56;;;0.09;77.67
76478;BME280;65309;49.790;18.972;2022-11-20T14:00:11;96151.66;;;0.32;77.50
76478;BME280;65309;49.790;18.972;2022-11-20T14:05:19;96151.69;;;0.16;78.45
76478;BME280;65309;49.790;18.972;2022-11-20T14:10:25;96173.91;;;0.43;77.38
76478;BME280;65309;49.790;18.972;2022-11-20T14:15:33;96178.75;;;1.10;75.20
76478;BME280;65309;49.790;18.972;2022-11-20T14:20:41;96175.94;;;1.26;74.77
76478;BME280;65309;49.790;18.972;2022-11-20T14:25:44;96163.47;;;1.41;74.87
76478;BME280;65309;49.790;18.972;2022-11-20T14:30:48;96162.38;;;1.64;73.60
76478;BME280;65309;49.790;18.972;2022-11-20T14:35:52;96166.38;;;1.47;74.46
76478;BME280;65309;49.790;18.972;2022-11-20T14:41:05;96153.19;;;1.32;74.53
76478;BME280;65309;49.790;18.972;2022-11-20T14:46:09;96144.25;;;1.32;74.46
76478;BME280;65309;49.790;18.972;2022-11-20T14:51:15;96135.66;;;1.33;73.57
76478;BME280;65309;49.790;18.972;2022-11-20T14:56:24;96150.31;;;1.11;76.76
76478;BME280;65309;49.790;18.972;2022-11-20T15:01:27;96132.72;;;1.41;75.42
76478;BME280;65309;49.790;18.972;2022-11-20T15:06:31;96126.84;;;1.55;76.11
76478;BME280;65309;49.790;18.972;2022-11-20T15:11:34;96108.31;;;1.50;75.91
76478;BME280;65309;49.790;18.972;2022-11-20T15:16:39;96129.44;;;1.20;76.96
76478;BME280;65309;49.790;18.972;2022-11-20T15:21:42;96141.78;;;1.50;76.14
76478;BME280;65309;49.790;18.972;2022-11-20T15:26:44;96129.34;;;1.74;75.24
76478;BME280;65309;49.790;18.972;2022-11-20T15:31:46;96126.16;;;2.01;74.30
76478;BME280;65309;49.790;18.972;2022-11-20T15:36:50;96131.75;;;1.85;75.65
76478;BME280;65309;49.790;18.972;2022-11-20T15:41:52;96116.13;;;1.98;75.12
76478;BME280;65309;49.790;18.972;2022-11-20T15:46:54;96123.00;;;2.03;75.14
76478;BME280;65309;49.790;18.972;2022-11-20T15:51:57;96130.84;;;1.88;75.79
76478;BME280;65309;49.790;18.972;2022-11-20T15:56:59;96119.00;;;1.82;76.19
76478;BME280;65309;49.790;18.972;2022-11-20T16:02:02;96113.50;;;2.07;75.31
76478;BME280;65309;49.790;18.972;2022-11-20T16:07:05;96115.78;;;2.09;75.37
76478;BME280;65309;49.790;18.972;2022-11-20T16:12:08;96126.28;;;1.98;75.29
76478;BME280;65309;49.790;18.972;2022-11-20T16:17:31;96122.69;;;1.88;75.97
76478;BME280;65309;49.790;18.972;2022-11-20T16:22:45;96121.66;;;2.20;75.13
76478;BME280;65309;49.790;18.972;2022-11-20T16:27:47;96133.66;;;2.10;75.86
76478;BME280;65309;49.790;18.972;2022-11-20T16:32:49;96128.53;;;2.24;75.32
76478;BME280;65309;49.790;18.972;2022-11-20T16:37:52;96133.97;;;2.24;75.25
76478;BME280;65309;49.790;18.972;2022-11-20T16:42:55;96132.53;;;2.33;74.90
76478;BME280;65309;49.790;18.972;2022-11-20T16:47:59;96116.16;;;2.33;75.01
76478;BME280;65309;49.790;18.972;2022-11-20T16:53:02;96117.28;;;2.22;74.93
76478;BME280;65309;49.790;18.972;2022-11-20T16:58:05;96124.91;;;2.27;75.55
76478;BME280;65309;49.790;18.972;2022-11-20T17:03:07;96122.44;;;2.42;74.37
76478;BME280;65309;49.790;18.972;2022-11-20T17:08:11;96128.84;;;2.26;75.26
76478;BME280;65309;49.790;18.972;2022-11-20T17:13:13;96139.34;;;2.03;76.80
76478;BME280;65309;49.790;18.972;2022-11-20T17:18:15;96129.75;;;2.11;75.55
76478;BME280;65309;49.790;18.972;2022-11-20T17:23:18;96139.91;;;1.85;77.59
76478;BME280;65309;49.790;18.972;2022-11-20T17:28:20;96134.34;;;1.89;77.05
76478;BME280;65309;49.790;18.972;2022-11-20T17:33:22;96131.84;;;1.44;79.99
76478;BME280;65309;49.790;18.972;2022-11-20T17:38:26;96116.59;;;1.59;78.54
76478;BME280;65309;49.790;18.972;2022-11-20T17:43:28;96124.09;;;1.67;78.07
76478;BME280;65309;49.790;18.972;2022-11-20T17:48:36;96129.47;;;1.71;77.48
76478;BME280;65309;49.790;18.972;2022-11-20T17:53:41;96115.91;;;1.80;77.34
76478;BME280;65309;49.790;18.972;2022-11-20T17:58:44;96111.00;;;2.00;76.47
76478;BME280;65309;49.790;18.972;2022-11-20T18:03:46;96107.63;;;1.96;76.89
76478;BME280;65309;49.790;18.972;2022-11-20T18:08:50;96102.19;;;1.96;76.77
76478;BME280;65309;49.790;18.972;2022-11-20T18:13:53;96103.88;;;2.15;75.69
76478;BME280;65309;49.790;18.972;2022-11-20T18:19:16;96106.19;;;2.17;76.58
76478;BME280;65309;49.790;18.972;2022-11-20T18:24:20;96101.72;;;1.98;77.36
76478;BME280;65309;49.790;18.972;2022-11-20T18:29:23;96094.06;;;2.05;76.73
76478;BME280;65309;49.790;18.972;2022-11-20T18:34:26;96090.38;;;2.12;76.94
76478;BME280;65309;49.790;18.972;2022-11-20T18:39:31;96084.88;;;2.24;75.87
76478;BME280;65309;49.790;18.972;2022-11-20T18:44:33;96094.97;;;2.37;75.39
76478;BME280;65309;49.790;18.972;2022-11-20T18:49:55;96102.09;;;2.21;75.37
76478;BME280;65309;49.790;18.972;2022-11-20T18:55:00;96092.50;;;2.29;75.73
76478;BME280;65309;49.790;18.972;2022-11-20T19:00:04;96085.91;;;2.05;77.67
76478;BME280;65309;49.790;18.972;2022-11-20T19:05:11;96090.66;;;2.14;77.48
76478;BME280;65309;49.790;18.972;2022-11-20T19:10:17;96087.28;;;2.22;76.41
76478;BME280;65309;49.790;18.972;2022-11-20T19:15:20;96074.59;;;2.28;76.95
76478;BME280;65309;49.790;18.972;2022-11-20T19:20:23;96089.03;;;2.16;77.35
76478;BME280;65309;49.790;18.972;2022-11-20T19:25:26;96078.28;;;2.35;76.53
76478;BME280;65309;49.790;18.972;2022-11-20T19:30:28;96070.16;;;2.44;76.73
76478;BME280;65309;49.790;18.972;2022-11-20T19:35:30;96063.56;;;2.32;77.04
76478;BME280;65309;49.790;18.972;2022-11-20T19:40:34;96055.31;;;2.45;77.03
76478;BME280;65309;49.790;18.972;2022-11-20T19:45:36;96040.06;;;2.35;77.06
76478;BME280;65309;49.790;18.972;2022-11-20T19:50:38;96052.91;;;2.47;76.31
76478;BME280;65309;49.790;18.972;2022-11-20T19:55:41;96047.50;;;2.56;nan
76478;BME280;65309;49.790;18.972;2022-11-20T20:00:46;96054.63;;;2.53;76.69
76478;BME280;65309;49.790;18.972;2022-11-20T20:05:48;96055.00;;;2.64;75.78
76478;BME280;65309;49.790;18.972;2022-11-20T20:10:51;96048.22;;;2.69;76.00
76478;BME280;65309;49.790;18.972;2022-11-20T20:16:00;96062.13;;;2.62;75.72
76478;BME280;65309;49.790;18.972;2022-11-20T20:21:03;96048.47;;;2.62;76.16
76478;BME280;65309;49.790;18.972;2022-11-20T20:26:07;96057.22;;;2.57;77.09
76478;BME280;65309;49.790;18.972;2022-11-20T20:31:11;96053.53;;;2.51;77.27
76478;BME280;65309;49.790;18.972;2022-11-20T20:36:14;96056.53;;;2.44;78.38
76478;BME280;65309;49.790;18.972;2022-11-20T20:41:19;96043.28;;;2.33;77.28
76478;BME280;65309;49.790;18.972;2022-11-20T20:46:22;96054.22;;;1.86;79.04
76478;BME280;65309;49.790;18.972;2022-11-20T20:51:24;96067.03;;;1.98;79.39
76478;BME280;65309;49.790;18.972;2022-11-20T20:56:28;96064.66;;;2.00;80.23
76478;BME280;65309;49.790;18.972;2022-11-20T21:01:30;96067.25;;;2.04;81.04
76478;BME280;65309;49.790;18.972;2022-11-20T21:06:32;96057.97;;;2.36;80.16
76478;BME280;65309;49.790;18.972;2022-11-20T21:11:35;96060.28;;;2.37;78.83
76478;BME280;65309;49.790;18.972;2022-11-20T21:16:37;96066.88;;;2.49;78.29
76478;BME280;65309;49.790;18.972;2022-11-20T21:21:44;96061.72;;;2.51;78.13
76478;BME280;65309;49.790;18.972;2022-11-20T21:27:05;96059.06;;;2.60;78.26
76478;BME280;65309;49.790;18.972;2022-11-20T21:32:07;96060.59;;;2.61;78.08
76478;BME280;65309;49.790;18.972;2022-11-20T21:37:09;96060.34;;;2.68;77.10
76478;BME280;65309;49.790;18.972;2022-11-20T21:42:12;96061.72;;;2.72;76.48
76478;BME280;65309;49.790;18.972;2022-11-20T21:47:15;96069.16;;;2.72;76.51
76478;BME280;65309;49.790;18.972;2022-11-20T21:52:17;96072.03;;;2.68;77.01
76478;BME280;65309;49.790;18.972;2022-11-20T21:57:20;96070.00;;;2.82;76.29
76478;BME280;65309;49.790;18.972;2022-11-20T22:02:22;96075.84;;;2.49;78.08
76478;BME280;65309;49.790;18.972;2022-11-20T22:07:24;96091.75;;;2.51;77.61
76478;BME280;65309;49.790;18.972;2022-11-20T22:12:28;96099.56;;;1.93;79.44
76478;BME280;65309;49.790;18.972;2022-11-20T22:17:30;96101.09;;;1.18;81.96
76478;BME280;65309;49.790;18.972;2022-11-20T22:22:50;96106.13;;;1.19;82.98
76478;BME280;65309;49.790;18.972;2022-11-20T22:27:53;96120.69;;;1.00;83.57
76478;BME280;65309;49.790;18.972;2022-11-20T22:32:55;96117.63;;;0.98;84.13
76478;BME280;65309;49.790;18.972;2022-11-20T22:37:57;96114.75;;;1.56;83.61
76478;BME280;65309;49.790;18.972;2022-11-20T22:43:01;96124.09;;;1.67;83.25
76478;BME280;65309;49.790;18.972;2022-11-20T22:48:03;96126.28;;;1.72;83.10
76478;BME280;65309;49.790;18.972;2022-11-20T22:53:05;96129.25;;;1.78;82.67
76478;BME280;65309;49.790;18.972;2022-11-20T22:58:08;96134.22;;;1.92;82.31
76478;BME280;65309;49.790;18.972;2022-11-20T23:03:10;96133.03;;;1.93;81.81
76478;BME280;65309;49.790;18.972;2022-11-20T23:08:12;96131.50;;;2.05;81.19
76478;BME280;65309;49.790;18.972;2022-11-20T23:13:16;96126.69;;;2.09;81.20
76478;BME280;65309;49.790;18.972;2022-11-20T23:18:18;96123.25;;;1.83;82.11
76478;BME280;65309;49.790;18.972;2022-11-20T23:23:20;96115.63;;;1.65;82.27
76478;BME280;65309;49.790;18.972;2022-11-20T23:28:23;96091.84;;;1.66;82.36
76478;BME280;65309;49.790;18.972;2022-11-20T23:33:25;96093.06;;;1.65;82.66
76478;BME280;65309;49.790;18.972;2022-11-20T23:38:27;96095.47;;;1.50;82.65
76478;BME280;65309;49.790;18.972;2022-11-20T23:43:31;96089.69;;;1.48;82.47
76478;BME280;65309;49.790;18.972;2022-11-20T23:48:34;96085.09;;;1.32;83.30
76478;BME280;65309;49.790;18.972;2022-11-20T23:53:37;96080.75;;;1.35;83.36
76478;BME280;65309;49.790;18.972;2022-11-20T23:58:40;96062.31;;;1.52;81.73
